Aérodrome :
LOGIN :

S'inscrire | Disclaimer

   EN    FR    IT 

 










Légende :    VFR   VFR Marginal   IFR   IFR Intensif   IFR Très Intensif
Visi : 
Plafond : 
>= 8 km
>= 3000ft
5 à 8 km
1000 à 3000 ft
1500m à 5 km
500 à 1000 ft
800 à 1500m
200 à 500 ft
< 800m
< 200 ft
Symboles :   Orages  Brouillard  Fortes neiges  Fortes précipitations  Vent > 20 kt
SIGMETs :   Divers  Orages  Givrage  Turbulence  Onde Orograph.  Cendres Volcan.







- Altitude de l'aérodrome : 3 ft
- Code IATA : LWR


EHLW - Leuuwarden Air Base

DERNIER METAR :
  • 270325Z AUTO 07007KT 010V110 9999 NCD 15/12 Q1021 BLU

METARs EXPIRÉS :
  • 270255Z AUTO 07008KT 010V120 9999 NCD 16/12 Q1021 BLU
  • 270225Z AUTO 07008KT 360V120 9999 NCD 15/12 Q1021 BLU
  • 270155Z AUTO 06009KT 010V110 9999 NCD 15/13 Q1021 BLU
  • 270125Z AUTO 06008KT 010V110 9999 NCD 15/13 Q1021 BLU
  • 270055Z AUTO 07008KT 020V110 9999 NCD 16/13 Q1021 BLU
  • 270025Z AUTO 08007KT 030V140 9999 NCD 18/13 Q1022 BLU

Prévision TAF périmée.
Pas de NOTAMs connus pour ce terrain.



MET'MAP, la Météo Aéronautique d'un coup d'oeil ! - Copyright ORBIFLY Décembre 2007 - Disclaimer

ORBIFLY MET'MAP TEAM :

Programmation & Développement : Alexandra Zaïnal
Conception & Développement : Baudouin d'Aumeries
Co-Programmation & Développement : Marc-Olivier Méhu
Soutien technique & logistique : Manuel Goepfert

Contact : metmap@orbifly.com




SOURCES & CREDITS :

   NOAA